E77 weather

San Manuel Airport
San Manuel, Arizona, United States

Public forecast

Using degrees Fahrenheit for public forecast. Weather courtesy of forecast.io.

Closest aviation weather report (METAR) to San Manuel Airport

Closest report is Davis Monthan Air Force Base, 30.7 nm (56.8 km) SSW. Retrieved 2020/03/30 05:58 UTC (43 minutes ago):

KDMA 300558Z 24006KT 10SM CLR 13/M05 A3001 RMK SLP138 52020

Closest aviation forecast (TAF) to San Manuel Airport

Closest forecast is Davis Monthan Air Force Base, 30.7 nm (56.8 km) SSW. Retrieved 2020/03/30 06:19 UTC (22 minutes ago):

TAF KDMA 300556Z 3006/3112 VRB06KT 9999 FEW280 QNH3001INS BECMG 3016/3017 31009KT 9999 SKC QNH3007INS TEMPO 3020/3023 32012G18KT BECMG 3102/3103 VRB06KT 9999 FEW250 QNH3008INS TX24/3022Z TN08/3013Z